createdAt,value
2022-12-01T00:00:59.058Z,2.38
2022-12-01T00:01:59.266Z,2.36
2022-12-01T00:02:59.235Z,2.35
2022-12-01T00:03:59.117Z,2.33
2022-12-01T00:04:59.130Z,2.29
2022-12-01T00:05:59.142Z,2.29
2022-12-01T00:06:59.183Z,2.32
2022-12-01T00:07:59.228Z,2.35
2022-12-01T00:08:59.192Z,2.35
2022-12-01T00:09:59.205Z,2.35
2022-12-01T00:10:59.238Z,2.35
2022-12-01T00:11:59.243Z,2.35
2022-12-01T00:12:59.260Z,2.32
2022-12-01T00:13:59.278Z,2.32
2022-12-01T00:14:59.301Z,2.33
2022-12-01T00:15:59.361Z,2.32
2022-12-01T00:16:59.387Z,2.33
2022-12-01T00:17:59.354Z,2.33
2022-12-01T00:18:59.379Z,2.32
2022-12-01T00:19:59.390Z,2.33
2022-12-01T00:20:59.412Z,2.32
2022-12-01T00:21:59.430Z,2.32
2022-12-01T00:22:59.451Z,2.29
2022-12-01T00:23:59.466Z,2.26
2022-12-01T00:24:59.486Z,2.24
2022-12-01T00:25:59.496Z,2.22
2022-12-01T00:26:59.536Z,2.24
2022-12-01T00:27:59.519Z,2.25
2022-12-01T00:28:59.540Z,2.24
2022-12-01T00:29:59.555Z,2.22
2022-12-01T00:30:59.573Z,2.25
2022-12-01T00:31:59.720Z,2.26
2022-12-01T00:32:59.607Z,2.29
2022-12-01T00:33:59.620Z,2.28
2022-12-01T00:34:59.639Z,2.29
2022-12-01T00:35:59.655Z,2.25
2022-12-01T00:36:59.695Z,2.24
2022-12-01T00:37:59.691Z,2.24
2022-12-01T00:38:59.712Z,2.24
2022-12-01T00:39:59.722Z,2.24
2022-12-01T00:40:59.742Z,2.25
2022-12-01T00:41:59.772Z,2.25
2022-12-01T00:42:59.775Z,2.29
2022-12-01T00:43:59.790Z,2.29
2022-12-01T00:44:59.811Z,2.29
2022-12-01T00:45:59.931Z,2.31
2022-12-01T00:46:59.869Z,2.28
2022-12-01T00:47:59.863Z,2.26
2022-12-01T00:48:59.884Z,2.24
2022-12-01T00:49:59.898Z,2.22
2022-12-01T00:50:59.917Z,2.22
2022-12-01T00:51:59.951Z,2.18
2022-12-01T00:52:59.955Z,2.18
2022-12-01T00:53:59.970Z,2.17
2022-12-01T00:54:59.992Z,2.15
2022-12-01T00:56:00.001Z,2.17
2022-12-01T00:57:00.038Z,2.20
2022-12-01T00:58:00.035Z,2.24
2022-12-01T00:59:00.067Z,2.20
2022-12-01T01:00:00.092Z,2.18
2022-12-01T01:01:00.230Z,2.18
2022-12-01T01:02:00.220Z,2.14
2022-12-01T01:03:00.128Z,2.15
2022-12-01T01:04:00.143Z,2.15
2022-12-01T01:05:00.168Z,2.15
2022-12-01T01:06:00.183Z,2.15
2022-12-01T01:07:00.219Z,2.15
2022-12-01T01:08:00.304Z,2.15
2022-12-01T01:09:00.237Z,2.17
2022-12-01T01:10:00.255Z,2.14
2022-12-01T01:11:00.274Z,2.17
2022-12-01T01:12:00.307Z,2.18
2022-12-01T01:13:00.310Z,2.22
2022-12-01T01:14:00.325Z,2.20
2022-12-01T01:15:00.343Z,2.18
2022-12-01T01:16:00.353Z,2.17
2022-12-01T01:17:00.486Z,2.18
2022-12-01T01:18:00.389Z,2.17
2022-12-01T01:19:00.409Z,2.20
2022-12-01T01:20:00.425Z,2.17
2022-12-01T01:21:00.445Z,2.18
2022-12-01T01:22:00.478Z,2.15
2022-12-01T01:23:00.484Z,2.17
2022-12-01T01:24:00.495Z,2.14
2022-12-01T01:25:00.515Z,2.14
2022-12-01T01:26:00.536Z,2.14
2022-12-01T01:27:00.574Z,2.14
2022-12-01T01:28:00.554Z,2.14
2022-12-01T01:29:00.576Z,2.13
2022-12-01T01:30:00.589Z,2.14
2022-12-01T01:31:00.670Z,2.15
2022-12-01T01:32:00.638Z,2.14
2022-12-01T01:33:00.641Z,2.11
2022-12-01T01:34:00.653Z,2.13
2022-12-01T01:35:00.674Z,2.13
2022-12-01T01:36:00.689Z,2.13
2022-12-01T01:37:00.723Z,2.10
2022-12-01T01:38:00.718Z,2.11
2022-12-01T01:39:00.738Z,2.11
2022-12-01T01:40:00.754Z,2.11
2022-12-01T01:41:00.774Z,2.13
2022-12-01T01:42:00.808Z,2.14
2022-12-01T01:43:00.806Z,2.11
2022-12-01T01:44:00.823Z,2.10
2022-12-01T01:45:00.843Z,2.07
2022-12-01T01:46:00.909Z,2.08
2022-12-01T01:47:00.898Z,2.08
2022-12-01T01:48:00.892Z,2.07
2022-12-01T01:49:00.914Z,2.08
2022-12-01T01:50:00.927Z,2.07
2022-12-01T01:51:00.948Z,2.11
2022-12-01T01:52:00.978Z,2.11
2022-12-01T01:53:00.977Z,2.11
2022-12-01T01:54:00.992Z,2.13
2022-12-01T01:55:01.013Z,2.11
2022-12-01T01:56:01.026Z,2.14
2022-12-01T01:57:01.067Z,2.15
2022-12-01T01:58:01.065Z,2.14
2022-12-01T01:59:01.087Z,2.15
2022-12-01T02:00:01.102Z,2.17
2022-12-01T02:01:01.223Z,2.15
2022-12-01T02:02:01.234Z,2.15
2022-12-01T02:03:01.265Z,2.15
2022-12-01T02:04:01.168Z,2.17
2022-12-01T02:05:01.191Z,2.18
2022-12-01T02:06:04.822Z,2.18
2022-12-01T02:07:01.250Z,2.18
2022-12-01T02:08:01.336Z,2.17
2022-12-01T02:09:01.265Z,2.18
2022-12-01T02:10:01.276Z,2.17
2022-12-01T02:11:01.296Z,2.17
2022-12-01T02:12:01.331Z,2.17
2022-12-01T02:13:01.331Z,2.18
2022-12-01T02:14:01.345Z,2.18
2022-12-01T02:15:01.361Z,2.13
2022-12-01T02:16:01.376Z,2.11
2022-12-01T02:17:01.423Z,2.13
2022-12-01T02:18:01.409Z,2.13
2022-12-01T02:19:01.426Z,2.15
2022-12-01T02:20:01.444Z,2.14
2022-12-01T02:21:01.461Z,2.13
2022-12-01T02:22:01.492Z,2.11
2022-12-01T02:23:01.491Z,2.07
2022-12-01T02:24:01.506Z,2.11
2022-12-01T02:25:01.526Z,2.11
2022-12-01T02:26:01.538Z,2.11
2022-12-01T02:27:01.580Z,2.08
2022-12-01T02:28:01.563Z,2.10
2022-12-01T02:29:01.586Z,2.10
2022-12-01T02:30:01.599Z,2.08
2022-12-01T02:31:01.724Z,2.08
2022-12-01T02:32:01.651Z,2.10
2022-12-01T02:33:01.654Z,2.11
2022-12-01T02:34:01.669Z,2.10
2022-12-01T02:35:01.693Z,2.08
2022-12-01T02:36:01.703Z,2.08
2022-12-01T02:37:01.743Z,2.08
2022-12-01T02:38:01.749Z,2.10
2022-12-01T02:39:01.764Z,2.08
2022-12-01T02:40:01.791Z,2.13
2022-12-01T02:41:01.802Z,2.11
2022-12-01T02:42:01.845Z,2.11
2022-12-01T02:43:01.833Z,2.11
2022-12-01T02:44:01.856Z,2.08
2022-12-01T02:45:01.874Z,2.08
2022-12-01T02:46:01.938Z,2.08
2022-12-01T02:47:01.923Z,2.13
2022-12-01T02:48:01.926Z,2.13
2022-12-01T02:49:01.936Z,2.11
2022-12-01T02:50:01.952Z,2.13
2022-12-01T02:51:01.971Z,2.11
2022-12-01T02:52:02.012Z,2.10
2022-12-01T02:53:02.002Z,2.13
2022-12-01T02:54:02.023Z,2.11
2022-12-01T02:55:02.026Z,2.13
2022-12-01T02:56:02.049Z,2.13
2022-12-01T02:57:02.071Z,2.14
2022-12-01T02:58:02.076Z,2.14
2022-12-01T02:59:02.095Z,2.13
2022-12-01T03:00:02.117Z,2.11
2022-12-01T03:01:02.278Z,2.11
2022-12-01T03:02:02.157Z,2.13
2022-12-01T03:03:02.258Z,2.14
2022-12-01T03:04:02.172Z,2.13
2022-12-01T03:05:02.189Z,2.10
2022-12-01T03:06:02.212Z,2.11
2022-12-01T03:07:02.230Z,2.13
2022-12-01T03:08:02.309Z,2.17
2022-12-01T03:09:02.259Z,2.15
2022-12-01T03:10:02.285Z,2.17
2022-12-01T03:11:02.381Z,2.15
2022-12-01T03:12:02.336Z,2.14
2022-12-01T03:13:02.322Z,2.15
2022-12-01T03:14:02.345Z,2.15
2022-12-01T03:15:02.362Z,2.15
2022-12-01T03:16:02.403Z,2.15
2022-12-01T03:17:02.408Z,2.13
2022-12-01T03:18:02.406Z,2.11
2022-12-01T03:19:02.423Z,2.11
2022-12-01T03:20:02.442Z,2.11
2022-12-01T03:21:02.466Z,2.13
2022-12-01T03:22:02.499Z,2.13
2022-12-01T03:23:02.490Z,2.11
2022-12-01T03:24:02.513Z,2.14
2022-12-01T03:25:02.516Z,2.11
2022-12-01T03:26:02.538Z,2.13
2022-12-01T03:27:02.575Z,2.14
2022-12-01T03:29:02.591Z,2.17
2022-12-01T03:30:02.606Z,2.17
2022-12-01T03:31:02.653Z,2.18
2022-12-01T03:32:02.666Z,2.17
2022-12-01T03:33:02.666Z,2.20
2022-12-01T03:34:02.681Z,2.20
2022-12-01T03:35:02.684Z,2.22
2022-12-01T03:36:02.707Z,2.25
2022-12-01T03:37:02.740Z,2.25
2022-12-01T03:38:02.747Z,2.18
2022-12-01T03:39:02.762Z,2.20
2022-12-01T03:40:02.786Z,2.20
2022-12-01T03:41:02.802Z,2.22
2022-12-01T03:42:02.846Z,2.20
2022-12-01T03:43:02.835Z,2.17
2022-12-01T03:44:02.855Z,2.17
2022-12-01T03:45:02.858Z,2.14
2022-12-01T03:46:03.016Z,2.15
2022-12-01T03:47:02.911Z,2.14
2022-12-01T03:48:02.913Z,2.15
2022-12-01T03:49:02.928Z,2.13
2022-12-01T03:50:02.948Z,2.14
2022-12-01T03:51:02.953Z,2.11
2022-12-01T03:52:02.995Z,2.11
2022-12-01T03:53:02.980Z,2.11
2022-12-01T03:54:02.998Z,2.11
2022-12-01T03:55:03.015Z,2.13
2022-12-01T03:56:03.040Z,2.17
2022-12-01T03:57:03.071Z,2.15
2022-12-01T03:58:03.072Z,2.15
2022-12-01T03:59:03.076Z,2.17
2022-12-01T04:00:03.096Z,2.15
2022-12-01T04:01:03.110Z,2.17
2022-12-01T04:02:03.205Z,2.18
2022-12-01T04:03:03.282Z,2.17
2022-12-01T04:04:03.151Z,2.15
2022-12-01T04:05:03.167Z,2.15
2022-12-01T04:06:03.187Z,2.18
2022-12-01T04:07:03.224Z,2.18
2022-12-01T04:08:03.335Z,2.20
2022-12-01T04:09:03.254Z,2.20
2022-12-01T04:10:03.255Z,2.18
2022-12-01T04:11:03.273Z,2.17
2022-12-01T04:12:03.314Z,2.13
2022-12-01T04:13:03.304Z,2.14
2022-12-01T04:14:03.323Z,2.11
2022-12-01T04:15:03.346Z,2.13
2022-12-01T04:16:03.394Z,2.13
2022-12-01T04:17:03.394Z,2.15
2022-12-01T04:18:03.379Z,2.13
2022-12-01T04:19:03.400Z,2.13
2022-12-01T04:20:03.415Z,2.11
2022-12-01T04:21:03.443Z,2.11
2022-12-01T04:22:03.464Z,2.10
2022-12-01T04:23:03.463Z,2.10
2022-12-01T04:24:03.497Z,2.14
2022-12-01T04:25:03.494Z,2.13
2022-12-01T04:26:03.499Z,2.15
2022-12-01T04:27:03.538Z,2.15
2022-12-01T04:28:03.541Z,2.17
2022-12-01T04:29:03.559Z,2.17
2022-12-01T04:30:03.575Z,2.17
2022-12-01T04:31:03.647Z,2.17
2022-12-01T04:32:03.625Z,2.17
2022-12-01T04:33:03.630Z,2.17
2022-12-01T04:34:03.635Z,2.14
2022-12-01T04:35:03.658Z,2.14
2022-12-01T04:36:03.673Z,2.17
2022-12-01T04:37:03.717Z,2.17
2022-12-01T04:38:03.715Z,2.15
2022-12-01T04:39:03.740Z,2.17
2022-12-01T04:40:03.746Z,2.15
2022-12-01T04:41:03.770Z,2.15
2022-12-01T04:42:03.805Z,2.17
2022-12-01T04:43:03.809Z,2.15
2022-12-01T04:44:03.829Z,2.15
2022-12-01T04:45:03.864Z,2.14
2022-12-01T04:46:03.860Z,2.15
2022-12-01T04:47:04.019Z,2.17
2022-12-01T04:48:03.897Z,2.17
2022-12-01T04:49:03.918Z,2.15
2022-12-01T04:50:03.933Z,2.18
2022-12-01T04:51:03.952Z,2.20
2022-12-01T04:52:03.977Z,2.20
2022-12-01T04:53:03.979Z,2.18
2022-12-01T04:54:03.996Z,2.18
2022-12-01T04:55:04.025Z,2.17
2022-12-01T04:56:10.037Z,2.20
2022-12-01T04:57:04.077Z,2.22
2022-12-01T04:58:04.061Z,2.20
2022-12-01T04:59:04.093Z,2.18
2022-12-01T05:00:04.097Z,2.20
2022-12-01T05:01:04.202Z,2.22
2022-12-01T05:02:04.333Z,2.22
2022-12-01T05:03:04.148Z,2.18
2022-12-01T05:04:04.152Z,2.15
2022-12-01T05:05:04.175Z,2.15
2022-12-01T05:06:04.190Z,2.13
2022-12-01T05:07:04.229Z,2.15
2022-12-01T05:08:04.302Z,2.17
2022-12-01T05:09:04.250Z,2.18
2022-12-01T05:10:04.269Z,2.17
2022-12-01T05:11:04.293Z,2.15
2022-12-01T05:12:04.328Z,2.14
2022-12-01T05:13:04.333Z,2.14
2022-12-01T05:14:04.338Z,2.13
2022-12-01T05:15:04.359Z,2.15
2022-12-01T05:16:05.046Z,2.13
2022-12-01T05:17:04.416Z,2.13
2022-12-01T05:18:04.404Z,2.17
2022-12-01T05:19:04.426Z,2.17
2022-12-01T05:20:04.430Z,2.20
2022-12-01T05:21:04.450Z,2.22
2022-12-01T05:22:04.477Z,2.22
2022-12-01T05:23:05.963Z,2.24
2022-12-01T05:24:04.496Z,2.24
2022-12-01T05:25:04.518Z,2.22
2022-12-01T05:26:04.544Z,2.20
2022-12-01T05:27:04.598Z,2.17
2022-12-01T05:28:04.571Z,2.17
2022-12-01T05:29:04.590Z,2.15
2022-12-01T05:30:04.604Z,2.17
2022-12-01T05:31:04.680Z,2.18
2022-12-01T05:32:04.747Z,2.22
2022-12-01T05:33:04.666Z,2.18
2022-12-01T05:34:04.680Z,2.17
2022-12-01T05:35:04.702Z,2.14
2022-12-01T05:36:04.717Z,2.14
2022-12-01T05:37:04.756Z,2.15
2022-12-01T05:38:08.073Z,2.15
2022-12-01T05:39:04.757Z,2.15
2022-12-01T05:40:04.772Z,2.17
2022-12-01T05:41:04.792Z,2.15
2022-12-01T05:42:04.828Z,2.15
2022-12-01T05:43:04.833Z,2.18
2022-12-01T05:44:04.850Z,2.20
2022-12-01T05:45:04.872Z,2.17
2022-12-01T05:46:04.922Z,2.17
2022-12-01T05:47:04.923Z,2.20
2022-12-01T05:48:04.915Z,2.18
2022-12-01T05:49:04.933Z,2.17
2022-12-01T05:50:05.977Z,2.18
2022-12-01T05:51:04.970Z,2.20
2022-12-01T05:52:04.994Z,2.18
2022-12-01T05:53:04.997Z,2.18
2022-12-01T05:54:05.014Z,2.18
2022-12-01T05:55:05.035Z,2.22
2022-12-01T05:56:05.051Z,2.22
2022-12-01T05:57:05.093Z,2.22
2022-12-01T05:58:05.084Z,2.20
2022-12-01T05:59:05.107Z,2.20
2022-12-01T06:00:05.126Z,2.18
2022-12-01T06:01:05.148Z,2.20
2022-12-01T06:02:05.227Z,2.17
2022-12-01T06:03:05.177Z,2.18
2022-12-01T06:04:05.250Z,2.24
2022-12-01T06:05:05.216Z,2.25
2022-12-01T06:06:05.221Z,2.22
2022-12-01T06:07:05.267Z,2.26
2022-12-01T06:08:05.252Z,2.24
2022-12-01T06:09:05.278Z,2.25
2022-12-01T06:10:05.294Z,2.24
2022-12-01T06:11:05.312Z,2.22
2022-12-01T06:12:05.336Z,2.20
2022-12-01T06:13:05.339Z,2.20
2022-12-01T06:14:05.358Z,2.25
2022-12-01T06:15:05.373Z,2.25
2022-12-01T06:16:05.388Z,2.26
2022-12-01T06:17:05.433Z,2.26
2022-12-01T06:18:05.420Z,2.25
2022-12-01T06:19:05.444Z,2.26
2022-12-01T06:20:05.446Z,2.25
2022-12-01T06:21:05.470Z,2.22
2022-12-01T06:22:05.506Z,2.24
2022-12-01T06:23:05.528Z,2.24
2022-12-01T06:24:05.526Z,2.25
2022-12-01T06:25:05.547Z,2.26
2022-12-01T06:26:05.564Z,2.26
2022-12-01T06:27:05.600Z,2.26
2022-12-01T06:28:05.596Z,2.22
2022-12-01T06:29:05.617Z,2.20
2022-12-01T06:30:05.634Z,2.22
2022-12-01T06:31:05.650Z,2.25
2022-12-01T06:32:05.830Z,2.22
2022-12-01T06:33:05.685Z,2.25
2022-12-01T06:34:05.698Z,2.25
2022-12-01T06:35:05.723Z,2.26
2022-12-01T06:36:05.739Z,2.29
2022-12-01T06:37:05.778Z,2.26
2022-12-01T06:38:05.776Z,2.25
2022-12-01T06:39:05.801Z,2.25
2022-12-01T06:40:05.815Z,2.25
2022-12-01T06:41:05.843Z,2.24
2022-12-01T06:42:05.868Z,2.22
2022-12-01T06:43:05.870Z,2.24
2022-12-01T06:44:05.886Z,2.25
2022-12-01T06:45:05.919Z,2.24
2022-12-01T06:46:06.073Z,2.22
2022-12-01T06:47:05.956Z,2.24
2022-12-01T06:48:05.959Z,2.26
2022-12-01T06:49:05.981Z,2.29
2022-12-01T06:50:05.998Z,2.26
2022-12-01T06:51:06.020Z,2.28
2022-12-01T06:52:06.060Z,2.26
2022-12-01T06:53:06.065Z,2.28
2022-12-01T06:54:06.075Z,2.29
2022-12-01T06:55:06.094Z,2.26
2022-12-01T06:56:06.104Z,2.26
2022-12-01T06:57:06.146Z,2.24
2022-12-01T06:58:06.129Z,2.25
2022-12-01T06:59:06.156Z,2.25
2022-12-01T07:00:06.177Z,2.25
2022-12-01T07:01:06.258Z,2.26
2022-12-01T07:02:06.275Z,2.26
2022-12-01T07:03:06.228Z,2.31
2022-12-01T07:04:06.242Z,2.33
2022-12-01T07:05:06.266Z,2.31
2022-12-01T07:06:06.282Z,2.32
2022-12-01T07:07:06.327Z,2.32
2022-12-01T07:08:06.374Z,2.29
2022-12-01T07:09:06.340Z,2.26
2022-12-01T07:10:06.342Z,2.31
2022-12-01T07:11:06.368Z,2.33
2022-12-01T07:12:06.395Z,2.33
2022-12-01T07:13:06.400Z,2.32
2022-12-01T07:14:06.415Z,2.29
2022-12-01T07:15:06.436Z,2.31
2022-12-01T07:16:06.441Z,2.31
2022-12-01T07:17:06.589Z,2.31
2022-12-01T07:18:06.477Z,2.31
2022-12-01T07:19:06.498Z,2.32
2022-12-01T07:20:06.512Z,2.35
2022-12-01T07:21:06.535Z,2.35
2022-12-01T07:22:06.554Z,2.33
2022-12-01T07:23:06.574Z,2.32
2022-12-01T07:24:06.588Z,2.36
2022-12-01T07:25:06.610Z,2.38
2022-12-01T07:26:06.619Z,2.36
2022-12-01T07:27:06.645Z,2.38
2022-12-01T07:28:06.658Z,2.38
2022-12-01T07:29:06.682Z,2.36
2022-12-01T07:30:06.698Z,2.35
2022-12-01T07:31:06.921Z,2.32
2022-12-01T07:32:06.732Z,2.32
2022-12-01T07:33:06.741Z,2.32
2022-12-01T07:34:06.745Z,2.32
2022-12-01T07:35:06.767Z,2.33
2022-12-01T07:36:06.769Z,2.36
2022-12-01T07:37:06.797Z,2.35
2022-12-01T07:38:06.804Z,2.33
2022-12-01T07:39:06.825Z,2.32
2022-12-01T07:40:06.835Z,2.32
2022-12-01T07:41:06.854Z,2.35
2022-12-01T07:42:06.875Z,2.35
2022-12-01T07:43:06.897Z,2.38
2022-12-01T07:44:06.907Z,2.38
2022-12-01T07:45:06.935Z,2.42
2022-12-01T07:46:07.019Z,2.39
2022-12-01T07:47:06.958Z,2.39
2022-12-01T07:48:06.964Z,2.44
2022-12-01T07:49:06.993Z,2.43
2022-12-01T07:50:06.992Z,2.39
2022-12-01T07:51:07.013Z,2.39
2022-12-01T07:52:07.034Z,2.44
2022-12-01T07:53:07.043Z,2.47
2022-12-01T07:54:07.058Z,2.50
2022-12-01T07:55:07.076Z,2.53
2022-12-01T07:56:08.941Z,2.53
2022-12-01T07:57:07.118Z,2.53
2022-12-01T07:58:07.124Z,2.51
2022-12-01T07:59:07.153Z,2.51
2022-12-01T08:00:07.167Z,2.50
2022-12-01T08:01:07.265Z,2.49
2022-12-01T08:02:07.287Z,2.53
2022-12-01T08:03:07.292Z,2.61
2022-12-01T08:04:07.229Z,2.62
2022-12-01T08:05:07.250Z,2.62
2022-12-01T08:06:07.265Z,2.57
2022-12-01T08:07:07.304Z,2.60
2022-12-01T08:08:07.410Z,2.61
2022-12-01T08:09:07.315Z,2.57
2022-12-01T08:10:07.332Z,2.61
2022-12-01T08:11:07.355Z,2.64
2022-12-01T08:12:07.393Z,2.61
2022-12-01T08:13:07.390Z,2.62
2022-12-01T08:14:07.414Z,2.69
2022-12-01T08:15:07.422Z,2.69
2022-12-01T08:16:07.505Z,2.68
2022-12-01T08:17:07.480Z,2.68
2022-12-01T08:18:07.470Z,2.69
2022-12-01T08:19:07.494Z,2.69
2022-12-01T08:20:07.493Z,2.71
2022-12-01T08:21:07.511Z,2.69
2022-12-01T08:22:07.545Z,2.69
2022-12-01T08:23:07.544Z,2.69
2022-12-01T08:24:07.813Z,2.74
2022-12-01T08:25:07.579Z,2.72
2022-12-01T08:26:07.599Z,2.74
2022-12-01T08:27:07.632Z,2.72
2022-12-01T08:28:07.636Z,2.71
2022-12-01T08:29:07.653Z,2.69
2022-12-01T08:30:07.671Z,2.68
2022-12-01T08:31:07.731Z,2.67
2022-12-01T08:32:07.725Z,2.68
2022-12-01T08:33:07.713Z,2.69
2022-12-01T08:34:07.758Z,2.71
2022-12-01T08:35:07.744Z,2.69
2022-12-01T08:36:07.768Z,2.68
2022-12-01T08:37:07.805Z,2.68
2022-12-01T08:38:07.812Z,2.72
2022-12-01T08:39:07.826Z,2.72
2022-12-01T08:40:07.846Z,2.74
2022-12-01T08:41:07.866Z,2.75
2022-12-01T08:42:07.903Z,2.79
2022-12-01T08:43:07.906Z,2.82
2022-12-01T08:44:07.930Z,2.82
2022-12-01T08:45:07.944Z,2.80
2022-12-01T08:46:08.016Z,2.83
2022-12-01T08:47:08.015Z,2.85
2022-12-01T08:48:08.008Z,2.86
2022-12-01T08:49:08.020Z,2.90
2022-12-01T08:50:08.042Z,2.98
2022-12-01T08:51:08.062Z,3.00
2022-12-01T08:52:08.127Z,2.93
2022-12-01T08:53:08.092Z,2.90
2022-12-01T08:54:08.116Z,2.93
2022-12-01T08:55:08.136Z,2.98
2022-12-01T08:56:08.152Z,3.03
2022-12-01T08:57:08.188Z,3.04
2022-12-01T08:58:08.194Z,2.97
2022-12-01T08:59:08.201Z,2.97
2022-12-01T09:00:08.222Z,2.95
2022-12-01T09:01:08.241Z,2.95
2022-12-01T09:02:08.447Z,2.98
2022-12-01T09:03:08.327Z,2.98
2022-12-01T09:04:08.848Z,3.00
2022-12-01T09:05:08.312Z,2.98
2022-12-01T09:06:08.336Z,3.01
2022-12-01T09:07:08.373Z,2.98
2022-12-01T09:08:08.419Z,2.95
2022-12-01T09:09:08.383Z,2.95
2022-12-01T09:10:08.405Z,2.92
2022-12-01T09:11:08.415Z,2.93
2022-12-01T09:12:08.455Z,2.95
2022-12-01T09:13:08.440Z,2.95
2022-12-01T09:14:08.466Z,2.89
2022-12-01T09:15:08.469Z,2.90
2022-12-01T09:16:08.563Z,2.89
2022-12-01T09:17:08.524Z,2.89
2022-12-01T09:18:08.528Z,2.92
2022-12-01T09:19:08.540Z,2.92
2022-12-01T09:20:08.573Z,2.95
2022-12-01T09:21:08.570Z,3.00
2022-12-01T09:22:08.616Z,3.01
2022-12-01T09:23:08.604Z,3.01
2022-12-01T09:24:08.627Z,3.00
2022-12-01T09:25:08.645Z,3.00
2022-12-01T09:26:13.252Z,3.00
2022-12-01T09:27:08.708Z,3.00
2022-12-01T09:28:08.705Z,2.98
2022-12-01T09:29:08.713Z,3.01
2022-12-01T09:30:08.738Z,3.01
2022-12-01T09:31:08.834Z,2.98
2022-12-01T09:32:08.789Z,2.98
2022-12-01T09:33:08.780Z,2.97
2022-12-01T09:34:08.879Z,2.93
2022-12-01T09:35:08.811Z,2.90
2022-12-01T09:36:08.838Z,2.90
2022-12-01T09:37:08.867Z,2.89
2022-12-01T09:38:08.871Z,2.93
2022-12-01T09:39:08.877Z,2.93
2022-12-01T09:40:08.899Z,2.90
2022-12-01T09:41:08.932Z,2.89
2022-12-01T09:42:09.522Z,2.90
2022-12-01T09:43:08.954Z,2.92
2022-12-01T09:44:08.976Z,2.95
2022-12-01T09:45:08.990Z,3.00
2022-12-01T09:46:09.009Z,3.00
2022-12-01T09:47:09.113Z,2.97
2022-12-01T09:48:09.048Z,2.98
2022-12-01T09:49:09.067Z,2.92
2022-12-01T09:50:09.092Z,2.93
2022-12-01T09:51:09.108Z,2.93
2022-12-01T09:52:09.128Z,2.97
2022-12-01T09:53:09.149Z,2.98
2022-12-01T09:54:09.168Z,3.00
2022-12-01T09:55:09.184Z,3.03
2022-12-01T09:56:12.956Z,3.05
2022-12-01T09:57:09.222Z,3.05
2022-12-01T09:58:09.244Z,3.05
2022-12-01T09:59:09.260Z,3.04
2022-12-01T10:00:09.283Z,3.04
2022-12-01T10:01:09.362Z,3.04
2022-12-01T10:02:09.383Z,3.04
2022-12-01T10:03:09.338Z,3.05
2022-12-01T10:04:09.363Z,3.05
2022-12-01T10:05:09.423Z,3.07
2022-12-01T10:06:26.878Z,3.07
2022-12-01T10:07:09.419Z,3.05
2022-12-01T10:08:09.483Z,3.07
2022-12-01T10:09:09.450Z,3.00
2022-12-01T10:10:09.472Z,3.04
2022-12-01T10:11:09.488Z,3.05
2022-12-01T10:12:09.531Z,3.08
2022-12-01T10:13:09.520Z,3.10
2022-12-01T10:14:09.543Z,3.11
2022-12-01T10:15:09.559Z,3.11
2022-12-01T10:16:09.737Z,3.13
2022-12-01T10:17:09.615Z,3.13
2022-12-01T10:18:09.644Z,3.05
2022-12-01T10:19:09.632Z,3.01
2022-12-01T10:20:09.656Z,3.03
2022-12-01T10:21:09.672Z,3.04
2022-12-01T10:22:09.727Z,3.07
2022-12-01T10:23:09.740Z,3.07
2022-12-01T10:24:09.740Z,3.08
2022-12-01T10:25:09.746Z,3.07
2022-12-01T10:26:09.768Z,3.08
2022-12-01T10:27:09.797Z,3.11
2022-12-01T10:28:09.787Z,3.11
2022-12-01T10:29:09.811Z,3.14
2022-12-01T10:30:09.827Z,3.19
2022-12-01T10:31:09.860Z,3.19
2022-12-01T10:32:09.880Z,3.21
2022-12-01T10:33:09.883Z,3.21
2022-12-01T10:34:09.908Z,3.19
2022-12-01T10:35:09.929Z,3.13
2022-12-01T10:36:09.928Z,3.13
2022-12-01T10:37:09.968Z,3.14
2022-12-01T10:38:09.983Z,3.14
2022-12-01T10:39:09.987Z,3.16
2022-12-01T10:40:10.018Z,3.16
2022-12-01T10:41:10.015Z,3.19
2022-12-01T10:42:10.058Z,3.23
2022-12-01T10:43:10.052Z,3.26
2022-12-01T10:44:10.075Z,3.29
2022-12-01T10:45:10.082Z,3.31
2022-12-01T10:46:10.162Z,3.32
2022-12-01T10:47:10.230Z,3.34
2022-12-01T10:48:10.150Z,3.40
2022-12-01T10:49:10.151Z,3.36
2022-12-01T10:50:10.172Z,3.34
2022-12-01T10:51:10.189Z,3.32
2022-12-01T10:52:10.211Z,3.26
2022-12-01T10:53:10.222Z,3.28
2022-12-01T10:54:10.243Z,3.29
2022-12-01T10:55:10.238Z,3.32
2022-12-01T10:56:16.260Z,3.32
2022-12-01T10:57:10.269Z,3.29
2022-12-01T10:58:10.290Z,3.26
2022-12-01T10:59:10.290Z,3.23
2022-12-01T11:00:10.314Z,3.25
2022-12-01T11:01:10.542Z,3.23
2022-12-01T11:02:10.581Z,3.26
2022-12-01T11:03:10.562Z,3.28
2022-12-01T11:04:10.384Z,3.26
2022-12-01T11:05:10.397Z,3.23
2022-12-01T11:06:10.419Z,3.22
2022-12-01T11:07:10.440Z,3.25
2022-12-01T11:08:10.487Z,3.26
2022-12-01T11:09:10.464Z,3.31
2022-12-01T11:10:10.482Z,3.32
2022-12-01T11:11:10.498Z,3.37
2022-12-01T11:12:10.547Z,3.37
2022-12-01T11:13:10.542Z,3.32
2022-12-01T11:14:10.560Z,3.32
2022-12-01T11:15:10.635Z,3.37
2022-12-01T11:16:10.629Z,3.41
2022-12-01T11:17:10.621Z,3.37
2022-12-01T11:18:10.625Z,3.37
2022-12-01T11:19:10.690Z,3.36
2022-12-01T11:20:10.718Z,3.41
2022-12-01T11:21:10.671Z,3.42
2022-12-01T11:22:10.714Z,3.41
2022-12-01T11:23:10.705Z,3.42
2022-12-01T11:24:10.725Z,3.48
2022-12-01T11:25:10.737Z,3.48
2022-12-01T11:26:10.759Z,3.45
2022-12-01T11:27:10.797Z,3.44
2022-12-01T11:28:10.803Z,3.44
2022-12-01T11:29:10.806Z,3.41
2022-12-01T11:30:10.827Z,3.36
2022-12-01T11:31:10.844Z,3.34
2022-12-01T11:32:10.957Z,3.32
2022-12-01T11:33:10.877Z,3.37
2022-12-01T11:34:10.903Z,3.40
2022-12-01T11:35:10.918Z,3.37
2022-12-01T11:36:16.061Z,3.40
2022-12-01T11:37:10.977Z,3.41
2022-12-01T11:38:29.421Z,3.40
2022-12-01T11:39:10.990Z,3.37
2022-12-01T11:40:11.003Z,3.34
2022-12-01T11:41:11.023Z,3.34
2022-12-01T11:42:11.059Z,3.36
2022-12-01T11:43:11.055Z,3.34
2022-12-01T11:44:28.531Z,3.40
2022-12-01T11:45:11.100Z,3.40
2022-12-01T11:46:11.228Z,3.40
2022-12-01T11:47:22.759Z,3.41
2022-12-01T11:48:11.158Z,3.37
2022-12-01T11:49:11.164Z,3.36
2022-12-01T11:50:11.182Z,3.41
2022-12-01T11:51:11.198Z,3.41
2022-12-01T11:52:11.238Z,3.41
2022-12-01T11:53:11.233Z,3.44
2022-12-01T11:54:11.276Z,3.44
2022-12-01T11:55:11.268Z,3.44
2022-12-01T11:56:11.292Z,3.37
2022-12-01T11:57:33.047Z,3.40
2022-12-01T11:58:11.330Z,3.42
2022-12-01T11:59:11.336Z,3.44
2022-12-01T12:00:11.361Z,3.44
2022-12-01T12:01:11.370Z,3.42
2022-12-01T12:02:11.501Z,3.41
2022-12-01T12:03:11.431Z,3.40
2022-12-01T12:04:11.416Z,3.42
2022-12-01T12:05:11.434Z,3.47
2022-12-01T12:06:38.801Z,3.48
2022-12-01T12:07:11.497Z,3.51
2022-12-01T12:08:11.494Z,3.51
2022-12-01T12:09:11.530Z,3.48
2022-12-01T12:10:11.528Z,3.51
2022-12-01T12:11:11.589Z,3.48
2022-12-01T12:12:11.576Z,3.50
2022-12-01T12:13:11.563Z,3.50
2022-12-01T12:14:11.586Z,3.50
2022-12-01T12:15:11.597Z,3.50
2022-12-01T12:16:11.621Z,3.51
2022-12-01T12:17:11.657Z,3.58
2022-12-01T12:18:11.700Z,3.55
2022-12-01T12:19:11.673Z,3.55
2022-12-01T12:20:12.308Z,3.55
2022-12-01T12:21:11.711Z,3.60
2022-12-01T12:22:11.753Z,3.56
2022-12-01T12:23:11.761Z,3.53
2022-12-01T12:24:11.773Z,3.56
2022-12-01T12:25:11.784Z,3.53
2022-12-01T12:26:11.811Z,3.55
2022-12-01T12:27:11.849Z,3.58
2022-12-01T12:28:11.842Z,3.55
2022-12-01T12:29:14.028Z,3.56
2022-12-01T12:30:11.872Z,3.56
2022-12-01T12:31:11.986Z,3.58
2022-12-01T12:32:11.924Z,3.59
2022-12-01T12:33:11.922Z,3.56
2022-12-01T12:34:11.953Z,3.58
2022-12-01T12:35:11.965Z,3.55
2022-12-01T12:36:11.998Z,3.55
2022-12-01T12:37:11.995Z,3.58
2022-12-01T12:38:12.000Z,3.55
2022-12-01T12:39:16.369Z,3.53
2022-12-01T12:40:12.098Z,3.56
2022-12-01T12:41:12.045Z,3.58
2022-12-01T12:42:12.076Z,3.62
2022-12-01T12:43:12.080Z,3.68
2022-12-01T12:44:12.095Z,3.65
2022-12-01T12:45:12.114Z,3.66
2022-12-01T12:46:12.198Z,3.62
2022-12-01T12:47:12.181Z,3.60
2022-12-01T12:48:12.164Z,3.59
2022-12-01T12:49:19.843Z,3.63
2022-12-01T12:50:12.295Z,3.66
2022-12-01T12:51:12.223Z,3.66
2022-12-01T12:52:12.255Z,3.68
2022-12-01T12:53:12.254Z,3.70
2022-12-01T12:54:12.349Z,3.70
2022-12-01T12:55:12.295Z,3.70
2022-12-01T12:56:12.311Z,3.70
2022-12-01T12:57:12.348Z,3.68
2022-12-01T12:58:12.345Z,3.66
2022-12-01T12:59:12.366Z,3.65
2022-12-01T13:00:12.478Z,3.65
2022-12-01T13:01:12.462Z,3.65
2022-12-01T13:02:12.478Z,3.66
2022-12-01T13:03:12.483Z,3.63
2022-12-01T13:04:12.448Z,3.66
2022-12-01T13:05:12.472Z,3.66
2022-12-01T13:06:12.488Z,3.68
2022-12-01T13:07:12.531Z,3.69
2022-12-01T13:08:12.521Z,3.68
2022-12-01T13:09:12.545Z,3.66
2022-12-01T13:10:12.557Z,3.62
2022-12-01T13:11:12.582Z,3.63
2022-12-01T13:12:12.618Z,3.60
2022-12-01T13:13:12.623Z,3.59
2022-12-01T13:14:12.634Z,3.59
2022-12-01T13:15:12.658Z,3.59
2022-12-01T13:16:12.972Z,3.62
2022-12-01T13:17:12.719Z,3.60
2022-12-01T13:18:12.714Z,3.62
2022-12-01T13:19:12.734Z,3.62
2022-12-01T13:20:12.762Z,3.63